createdAt,value
2018-12-07T00:01:23.661Z,12.20
2018-12-07T00:03:58.561Z,12.20
2018-12-07T00:06:33.521Z,12.30
2018-12-07T00:09:08.371Z,12.30
2018-12-07T00:11:43.926Z,12.30
2018-12-07T00:14:18.912Z,12.30
2018-12-07T00:16:53.715Z,12.30
2018-12-07T00:19:28.673Z,12.40
2018-12-07T00:22:03.843Z,12.40
2018-12-07T00:24:38.720Z,12.50
2018-12-07T00:27:13.727Z,12.40
2018-12-07T00:29:48.790Z,12.50
2018-12-07T00:32:24.048Z,12.40
2018-12-07T00:34:58.940Z,12.50
2018-12-07T00:37:34.370Z,12.50
2018-12-07T00:40:10.579Z,12.50
2018-12-07T00:42:39.839Z,12.40
2018-12-07T00:45:14.720Z,12.40
2018-12-07T00:47:49.846Z,12.40
2018-12-07T00:50:25.010Z,12.40
2018-12-07T00:52:59.635Z,12.40
2018-12-07T00:55:40.207Z,12.30
2018-12-07T00:58:15.012Z,12.30
2018-12-07T01:00:49.786Z,12.20
2018-12-07T01:03:24.570Z,12.20
2018-12-07T01:05:59.385Z,12.10
2018-12-07T01:08:34.864Z,12.10
2018-12-07T01:11:10.418Z,12.00
2018-12-07T01:13:45.220Z,12.00
2018-12-07T01:16:20.121Z,11.90
2018-12-07T01:18:55.522Z,11.90
2018-12-07T01:21:30.896Z,11.90
2018-12-07T01:24:05.485Z,11.90
2018-12-07T01:26:40.305Z,11.80
2018-12-07T01:29:14.910Z,11.80
2018-12-07T01:31:49.664Z,11.80
2018-12-07T01:34:23.353Z,11.80
2018-12-07T01:36:58.165Z,11.70
2018-12-07T01:39:33.234Z,11.70
2018-12-07T01:42:08.038Z,11.70
2018-12-07T01:44:42.784Z,11.60
2018-12-07T01:47:17.810Z,11.60
2018-12-07T01:49:52.518Z,11.50
2018-12-07T01:52:27.454Z,11.60
2018-12-07T01:55:02.185Z,11.60
2018-12-07T01:57:37.926Z,11.60
2018-12-07T02:00:12.967Z,11.60
2018-12-07T02:02:47.768Z,11.60
2018-12-07T02:05:22.701Z,11.60
2018-12-07T02:07:57.546Z,11.60
2018-12-07T02:10:32.425Z,11.50
2018-12-07T02:13:07.364Z,11.50
2018-12-07T02:15:42.139Z,11.50
2018-12-07T02:18:18.176Z,11.50
2018-12-07T02:20:52.969Z,11.40
2018-12-07T02:23:27.688Z,11.50
2018-12-07T02:26:02.689Z,11.50
2018-12-07T02:28:37.425Z,11.40
2018-12-07T02:31:12.485Z,11.40
2018-12-07T02:33:47.782Z,11.50
2018-12-07T02:36:22.651Z,11.50
2018-12-07T02:38:57.638Z,11.50
2018-12-07T02:41:32.426Z,11.50
2018-12-07T02:44:07.397Z,11.50
2018-12-07T02:46:43.103Z,11.50
2018-12-07T02:49:17.961Z,11.50
2018-12-07T02:51:52.788Z,11.50
2018-12-07T02:54:27.715Z,11.50
2018-12-07T02:57:02.596Z,11.50
2018-12-07T02:59:37.621Z,11.50
2018-12-07T03:02:12.610Z,11.60
2018-12-07T03:04:41.973Z,11.50
2018-12-07T03:07:16.728Z,11.60
2018-12-07T03:09:51.567Z,11.60
2018-12-07T03:12:26.402Z,11.60
2018-12-07T03:15:01.237Z,11.60
2018-12-07T03:17:35.902Z,11.60
2018-12-07T03:20:11.482Z,11.70
2018-12-07T03:22:46.548Z,11.70
2018-12-07T03:25:21.169Z,11.70
2018-12-07T03:27:56.099Z,11.70
2018-12-07T03:30:30.913Z,11.70
2018-12-07T03:33:05.602Z,11.70
2018-12-07T03:35:40.929Z,11.70
2018-12-07T03:38:16.158Z,11.70
2018-12-07T03:40:51.167Z,11.70
2018-12-07T03:43:26.098Z,11.70
2018-12-07T03:46:00.861Z,11.80
2018-12-07T03:48:35.707Z,11.80
2018-12-07T03:51:10.917Z,11.80
2018-12-07T03:53:46.000Z,11.80
2018-12-07T03:56:20.796Z,11.80
2018-12-07T03:58:55.501Z,11.80
2018-12-07T04:01:30.872Z,11.80
2018-12-07T04:04:05.729Z,11.80
2018-12-07T04:06:40.539Z,11.90
2018-12-07T04:09:15.434Z,11.90
2018-12-07T04:11:50.352Z,11.90
2018-12-07T04:14:25.148Z,11.90
2018-12-07T04:17:00.035Z,11.90
2018-12-07T04:19:35.255Z,11.90
2018-12-07T04:22:10.212Z,11.80
2018-12-07T04:24:45.367Z,11.80
2018-12-07T04:27:20.028Z,11.80
2018-12-07T04:30:04.836Z,11.80
2018-12-07T04:32:39.612Z,11.80
2018-12-07T04:35:14.907Z,11.80
2018-12-07T04:37:49.972Z,11.70
2018-12-07T04:40:24.745Z,11.80
2018-12-07T04:42:59.656Z,11.70
2018-12-07T04:45:34.935Z,11.70
2018-12-07T04:48:09.901Z,11.70
2018-12-07T04:50:44.627Z,11.70
2018-12-07T04:53:19.473Z,11.70
2018-12-07T04:55:54.588Z,11.70
2018-12-07T04:58:29.574Z,11.70
2018-12-07T05:01:05.002Z,11.70
2018-12-07T05:03:40.278Z,11.60
2018-12-07T05:06:14.998Z,11.60
2018-12-07T05:08:49.692Z,11.70
2018-12-07T05:11:24.533Z,11.70
2018-12-07T05:14:00.064Z,11.70
2018-12-07T05:16:34.990Z,11.70
2018-12-07T05:19:09.687Z,11.70
2018-12-07T05:21:44.481Z,11.70
2018-12-07T05:24:19.331Z,11.70
2018-12-07T05:26:54.601Z,11.70
2018-12-07T05:29:29.735Z,11.70
2018-12-07T05:32:04.699Z,11.70
2018-12-07T05:34:39.543Z,11.80
2018-12-07T05:37:13.458Z,11.70
2018-12-07T05:39:42.767Z,11.70
2018-12-07T05:42:11.952Z,11.70
2018-12-07T05:44:41.313Z,11.70
2018-12-07T05:47:10.385Z,11.70
2018-12-07T05:49:39.629Z,11.70
2018-12-07T05:52:09.980Z,11.70
2018-12-07T05:54:39.056Z,11.70
2018-12-07T05:57:09.188Z,11.70
2018-12-07T05:59:39.201Z,11.70
2018-12-07T06:02:08.542Z,11.70
2018-12-07T06:04:38.580Z,11.70
2018-12-07T06:07:07.828Z,11.70
2018-12-07T06:09:37.151Z,11.60
2018-12-07T06:12:06.579Z,11.60
2018-12-07T06:14:36.053Z,11.60
2018-12-07T06:17:05.284Z,11.70
2018-12-07T06:19:40.233Z,11.70
2018-12-07T06:22:14.960Z,11.70
2018-12-07T06:24:44.216Z,11.70
2018-12-07T06:27:13.616Z,11.70
2018-12-07T06:29:42.948Z,11.70
2018-12-07T06:32:18.121Z,11.70
2018-12-07T06:34:52.756Z,11.70
2018-12-07T06:37:27.714Z,11.70
2018-12-07T06:40:02.599Z,11.70
2018-12-07T06:42:37.929Z,11.60
2018-12-07T06:45:08.017Z,11.60
2018-12-07T06:47:39.089Z,11.60
2018-12-07T06:50:08.735Z,11.60
2018-12-07T06:52:38.334Z,11.70
2018-12-07T06:55:07.876Z,11.70
2018-12-07T06:57:42.605Z,11.70
2018-12-07T07:00:17.947Z,11.70
2018-12-07T07:02:52.832Z,11.70
2018-12-07T07:05:27.680Z,11.70
2018-12-07T07:08:02.666Z,11.70
2018-12-07T07:10:37.332Z,11.70
2018-12-07T07:13:12.047Z,11.70
2018-12-07T07:15:46.808Z,11.70
2018-12-07T07:18:22.007Z,11.70
2018-12-07T07:20:56.754Z,11.70
2018-12-07T07:23:31.611Z,11.70
2018-12-07T07:26:06.831Z,11.70
2018-12-07T07:28:42.115Z,11.70
2018-12-07T07:31:16.997Z,11.80
2018-12-07T07:33:52.549Z,11.70
2018-12-07T07:36:22.414Z,11.80
2018-12-07T07:38:51.563Z,11.70
2018-12-07T07:41:20.817Z,11.70
2018-12-07T07:43:50.319Z,11.70
2018-12-07T07:46:19.614Z,11.80
2018-12-07T07:48:48.835Z,11.80
2018-12-07T07:51:23.732Z,11.80
2018-12-07T07:53:58.821Z,11.80
2018-12-07T07:56:34.418Z,11.80
2018-12-07T07:59:09.259Z,11.80
2018-12-07T08:01:44.207Z,11.80
2018-12-07T08:04:19.284Z,11.80
2018-12-07T08:06:54.149Z,11.80
2018-12-07T08:09:29.058Z,11.80
2018-12-07T08:12:03.975Z,11.70
2018-12-07T08:14:33.183Z,11.70
2018-12-07T08:17:02.296Z,11.70
2018-12-07T08:19:31.414Z,11.70
2018-12-07T08:22:00.870Z,11.70
2018-12-07T08:24:29.973Z,11.70
2018-12-07T08:26:59.621Z,11.70
2018-12-07T08:29:28.825Z,11.60
2018-12-07T08:31:58.283Z,11.60
2018-12-07T08:34:27.477Z,11.60
2018-12-07T08:36:56.568Z,11.60
2018-12-07T08:39:25.754Z,11.60
2018-12-07T08:41:54.874Z,11.70
2018-12-07T08:44:24.354Z,11.70
2018-12-07T08:46:59.093Z,11.70
2018-12-07T08:49:39.103Z,11.70
2018-12-07T08:52:08.866Z,11.70
2018-12-07T08:54:38.057Z,11.60
2018-12-07T08:57:07.467Z,11.60
2018-12-07T08:59:36.668Z,11.60
2018-12-07T09:02:06.745Z,11.60
2018-12-07T09:04:37.573Z,11.60
2018-12-07T09:07:06.834Z,11.60
2018-12-07T09:09:36.064Z,11.60
2018-12-07T09:12:05.915Z,11.60
2018-12-07T09:14:35.168Z,11.60
2018-12-07T09:17:04.884Z,11.60
2018-12-07T09:19:39.778Z,11.60
2018-12-07T09:22:14.541Z,11.60
2018-12-07T09:24:49.959Z,11.60
2018-12-07T09:27:24.700Z,11.70
2018-12-07T09:29:59.436Z,11.70
2018-12-07T09:32:34.219Z,11.70
2018-12-07T09:35:09.135Z,11.70
2018-12-07T09:37:43.985Z,11.80
2018-12-07T09:40:19.008Z,11.80
2018-12-07T09:42:54.504Z,11.80
2018-12-07T09:45:29.646Z,11.80
2018-12-07T09:48:04.887Z,11.80
2018-12-07T09:50:39.690Z,11.80
2018-12-07T09:53:14.548Z,11.80
2018-12-07T09:55:49.684Z,11.80
2018-12-07T09:58:24.721Z,11.90
2018-12-07T10:00:59.595Z,11.90
2018-12-07T10:03:34.575Z,11.90
2018-12-07T10:06:09.354Z,11.90
2018-12-07T10:08:44.416Z,11.90
2018-12-07T10:11:19.111Z,11.90
2018-12-07T10:13:54.339Z,11.90
2018-12-07T10:16:29.406Z,12.00
2018-12-07T10:19:05.067Z,12.00
2018-12-07T10:21:39.930Z,12.00
2018-12-07T10:24:14.825Z,12.00
2018-12-07T10:26:49.558Z,12.00
2018-12-07T10:29:24.371Z,12.00
2018-12-07T10:31:59.371Z,12.00
2018-12-07T10:34:34.366Z,12.10
2018-12-07T10:37:09.328Z,12.10
2018-12-07T10:39:45.143Z,12.20
2018-12-07T10:42:19.989Z,12.20
2018-12-07T10:44:55.079Z,12.20
2018-12-07T10:47:29.910Z,12.20
2018-12-07T10:50:06.209Z,12.20
2018-12-07T10:52:41.149Z,12.20
2018-12-07T10:55:16.079Z,12.20
2018-12-07T10:57:50.820Z,12.20
2018-12-07T11:00:30.920Z,12.20
2018-12-07T11:03:11.616Z,12.20
2018-12-07T11:05:51.741Z,12.30
2018-12-07T11:08:31.778Z,12.30
2018-12-07T11:11:11.742Z,12.30
2018-12-07T11:13:51.797Z,12.40
2018-12-07T11:16:31.836Z,12.40
2018-12-07T11:19:06.066Z,12.40
2018-12-07T11:21:46.242Z,12.50
2018-12-07T11:24:26.415Z,12.50
2018-12-07T11:27:07.053Z,12.50
2018-12-07T11:29:47.295Z,12.50
2018-12-07T11:32:26.467Z,12.50
2018-12-07T11:35:06.736Z,12.50
2018-12-07T11:37:41.468Z,12.50
2018-12-07T11:40:16.383Z,12.50
2018-12-07T11:42:51.349Z,12.50
2018-12-07T11:45:26.312Z,12.60
2018-12-07T11:48:05.095Z,12.50
2018-12-07T11:50:40.119Z,12.60
2018-12-07T11:53:09.368Z,12.60
2018-12-07T11:55:39.243Z,12.60
2018-12-07T11:58:08.836Z,12.70
2018-12-07T12:00:38.164Z,12.70
2018-12-07T12:03:07.489Z,12.70
2018-12-07T12:05:36.899Z,12.80
2018-12-07T12:08:06.147Z,12.80
2018-12-07T12:10:35.835Z,12.80
2018-12-07T12:13:05.134Z,12.90
2018-12-07T12:15:34.276Z,12.90
2018-12-07T12:18:04.128Z,12.90
2018-12-07T12:20:33.342Z,12.90
2018-12-07T12:23:03.005Z,12.90
2018-12-07T12:25:32.293Z,12.90
2018-12-07T12:28:02.042Z,12.90
2018-12-07T12:30:31.611Z,13.00
2018-12-07T12:33:01.038Z,13.00
2018-12-07T12:35:30.340Z,13.00
2018-12-07T12:38:05.978Z,12.90
2018-12-07T12:40:35.860Z,12.90
2018-12-07T12:43:05.893Z,12.90
2018-12-07T12:45:40.797Z,12.90
2018-12-07T12:48:15.825Z,12.90
2018-12-07T12:50:50.712Z,12.90
2018-12-07T12:53:25.545Z,13.00
2018-12-07T12:55:54.984Z,13.00
2018-12-07T12:58:24.380Z,13.00
2018-12-07T13:00:53.761Z,13.00
2018-12-07T13:03:23.474Z,13.00
2018-12-07T13:05:52.667Z,13.10
2018-12-07T13:08:22.400Z,13.10
2018-12-07T13:10:52.169Z,13.10
2018-12-07T13:13:21.492Z,13.10
2018-12-07T13:15:50.985Z,13.10
2018-12-07T13:18:20.265Z,13.10
2018-12-07T13:20:49.553Z,13.20
2018-12-07T13:23:18.803Z,13.10
2018-12-07T13:25:48.259Z,13.10
2018-12-07T13:28:17.584Z,13.10
2018-12-07T13:30:46.911Z,13.10
2018-12-07T13:33:16.173Z,13.10
2018-12-07T13:35:45.490Z,13.10
2018-12-07T13:38:15.113Z,13.10
2018-12-07T13:40:44.545Z,13.10
2018-12-07T13:43:14.754Z,13.10
2018-12-07T13:45:44.616Z,13.10
2018-12-07T13:48:14.588Z,13.10
2018-12-07T13:50:44.787Z,13.10
2018-12-07T13:53:14.757Z,13.10
2018-12-07T13:55:44.601Z,13.10
2018-12-07T13:58:14.320Z,13.00
2018-12-07T14:00:44.513Z,12.90
2018-12-07T14:03:14.256Z,12.70
2018-12-07T14:05:43.783Z,12.50
2018-12-07T14:08:13.334Z,12.50
2018-12-07T14:10:43.597Z,12.30
2018-12-07T14:13:13.230Z,12.30
2018-12-07T14:15:43.130Z,12.30
2018-12-07T14:18:12.843Z,12.40
2018-12-07T14:20:42.691Z,12.40
2018-12-07T14:23:14.296Z,12.40
2018-12-07T14:25:44.110Z,12.40
2018-12-07T14:28:13.946Z,12.30
2018-12-07T14:30:43.598Z,12.20
2018-12-07T14:33:13.153Z,12.20
2018-12-07T14:35:42.581Z,12.10
2018-12-07T14:38:12.293Z,12.10
2018-12-07T14:40:43.404Z,12.10
2018-12-07T14:43:13.282Z,12.10
2018-12-07T14:45:43.139Z,12.10
2018-12-07T14:48:12.825Z,12.10
2018-12-07T14:50:42.174Z,12.10
2018-12-07T14:53:11.963Z,12.10
2018-12-07T14:55:41.610Z,12.10
2018-12-07T14:58:11.612Z,12.10
2018-12-07T15:00:41.304Z,12.10
2018-12-07T15:03:11.399Z,12.10
2018-12-07T15:05:41.485Z,12.10
2018-12-07T15:08:11.304Z,12.10
2018-12-07T15:10:40.826Z,12.10
2018-12-07T15:13:10.714Z,12.00
2018-12-07T15:15:40.982Z,11.90
2018-12-07T15:18:10.750Z,11.80
2018-12-07T15:20:40.274Z,11.80
2018-12-07T15:23:11.360Z,11.70
2018-12-07T15:25:41.812Z,11.70
2018-12-07T15:28:11.208Z,11.60
2018-12-07T15:30:40.953Z,11.60
2018-12-07T15:33:11.036Z,11.60
2018-12-07T15:35:40.783Z,11.50
2018-12-07T15:38:10.682Z,11.40
2018-12-07T15:40:40.184Z,11.40
2018-12-07T15:43:10.097Z,11.40
2018-12-07T15:45:39.924Z,11.30
2018-12-07T15:48:09.786Z,11.30
2018-12-07T15:50:39.627Z,11.20
2018-12-07T15:53:09.213Z,11.20
2018-12-07T15:55:38.737Z,11.20
2018-12-07T15:58:08.112Z,11.20
2018-12-07T16:00:38.354Z,11.10
2018-12-07T16:03:08.159Z,11.10
2018-12-07T16:05:38.119Z,11.10
2018-12-07T16:08:07.768Z,11.10
2018-12-07T16:10:37.331Z,11.20
2018-12-07T16:13:07.451Z,11.20
2018-12-07T16:15:37.265Z,11.20
2018-12-07T16:18:09.759Z,11.20
2018-12-07T16:20:39.938Z,11.20
2018-12-07T16:23:09.681Z,11.20
2018-12-07T16:25:39.203Z,11.20
2018-12-07T16:28:09.043Z,11.20
2018-12-07T16:30:38.573Z,11.20
2018-12-07T16:33:08.985Z,11.20
2018-12-07T16:35:39.243Z,11.20
2018-12-07T16:38:08.932Z,11.20
2018-12-07T16:40:38.337Z,11.20
2018-12-07T16:43:07.984Z,11.20
2018-12-07T16:45:37.785Z,11.20
2018-12-07T16:48:07.318Z,11.20
2018-12-07T16:50:37.112Z,11.20
2018-12-07T16:53:06.550Z,11.10
2018-12-07T16:55:36.353Z,11.10
2018-12-07T16:58:06.079Z,11.10
2018-12-07T17:00:35.618Z,11.10
2018-12-07T17:03:05.880Z,11.10
2018-12-07T17:05:35.608Z,11.10
2018-12-07T17:08:05.350Z,11.10
2018-12-07T17:10:34.963Z,11.10
2018-12-07T17:13:05.091Z,11.10
2018-12-07T17:15:34.876Z,11.00
2018-12-07T17:18:04.413Z,11.00
2018-12-07T17:20:33.845Z,11.00
2018-12-07T17:23:03.632Z,11.00
2018-12-07T17:25:33.164Z,11.00
2018-12-07T17:28:02.563Z,10.90
2018-12-07T17:30:32.217Z,10.90
2018-12-07T17:33:01.986Z,10.90
2018-12-07T17:35:31.488Z,10.90
2018-12-07T17:38:00.671Z,10.80
2018-12-07T17:40:31.405Z,10.80
2018-12-07T17:43:00.917Z,10.70
2018-12-07T17:45:31.039Z,10.60
2018-12-07T17:48:00.650Z,10.50
2018-12-07T17:50:30.171Z,10.50
2018-12-07T17:52:59.713Z,10.40
2018-12-07T17:55:29.522Z,10.30
2018-12-07T17:57:59.785Z,10.20
2018-12-07T18:00:29.856Z,10.20
2018-12-07T18:02:59.507Z,10.10
2018-12-07T18:05:29.339Z,10.00
2018-12-07T18:07:58.698Z,9.90
2018-12-07T18:10:28.935Z,9.80
2018-12-07T18:12:58.660Z,9.70
2018-12-07T18:15:28.575Z,9.50
2018-12-07T18:17:58.515Z,9.30
2018-12-07T18:20:27.978Z,9.20
2018-12-07T18:22:57.466Z,9.00
2018-12-07T18:25:27.780Z,8.90
2018-12-07T18:27:57.334Z,8.90
2018-12-07T18:30:27.332Z,8.80
2018-12-07T18:32:57.237Z,8.80
2018-12-07T18:35:28.915Z,8.70
2018-12-07T18:37:58.929Z,8.70
2018-12-07T18:40:28.718Z,8.70
2018-12-07T18:42:58.351Z,8.70
2018-12-07T18:45:28.492Z,8.70
2018-12-07T18:47:58.548Z,8.70
2018-12-07T18:50:28.865Z,8.70
2018-12-07T18:52:58.722Z,8.70
2018-12-07T18:55:29.034Z,8.60
2018-12-07T18:57:58.721Z,8.60
2018-12-07T19:00:28.584Z,8.60
2018-12-07T19:03:04.169Z,8.60
2018-12-07T19:05:39.382Z,8.60
2018-12-07T19:08:14.725Z,8.50
2018-12-07T19:10:50.270Z,8.50
2018-12-07T19:13:25.334Z,8.50
2018-12-07T19:16:00.612Z,8.40
2018-12-07T19:18:35.641Z,8.40
2018-12-07T19:21:05.285Z,8.40
2018-12-07T19:23:40.995Z,8.40
2018-12-07T19:26:16.345Z,8.20
2018-12-07T19:28:51.745Z,8.20
2018-12-07T19:31:27.121Z,8.10
2018-12-07T19:34:02.089Z,8.10
2018-12-07T19:36:37.487Z,8.10
2018-12-07T19:39:12.801Z,8.10
2018-12-07T19:41:48.195Z,8.10
2018-12-07T19:44:23.565Z,8.10
2018-12-07T19:46:59.292Z,8.00
2018-12-07T19:49:34.607Z,8.00
2018-12-07T19:52:10.112Z,8.00
2018-12-07T19:54:45.312Z,8.00
2018-12-07T19:57:20.594Z,8.00
2018-12-07T19:59:55.608Z,8.00
2018-12-07T20:02:31.332Z,8.00
2018-12-07T20:05:07.578Z,7.90
2018-12-07T20:07:43.227Z,7.90
2018-12-07T20:10:18.334Z,7.90
2018-12-07T20:12:53.663Z,8.00
2018-12-07T20:15:28.608Z,8.00
2018-12-07T20:18:03.924Z,8.00
2018-12-07T20:20:39.152Z,8.00
2018-12-07T20:23:14.279Z,8.00
2018-12-07T20:25:49.198Z,8.00
2018-12-07T20:28:24.238Z,8.00
2018-12-07T20:30:59.488Z,7.90
2018-12-07T20:33:35.206Z,7.80
2018-12-07T20:36:16.765Z,7.80
2018-12-07T20:38:46.800Z,7.70
2018-12-07T20:41:22.201Z,7.60
2018-12-07T20:43:57.683Z,7.50
2018-12-07T20:46:33.128Z,7.50
2018-12-07T20:49:07.812Z,7.50
2018-12-07T20:51:43.431Z,7.50
2018-12-07T20:54:19.951Z,7.40
2018-12-07T20:56:49.840Z,7.40
2018-12-07T20:59:25.301Z,7.40
2018-12-07T21:02:01.599Z,7.40
2018-12-07T21:04:40.457Z,7.40
2018-12-07T21:07:32.390Z,7.40
2018-12-07T21:10:23.352Z,7.40
2018-12-07T21:13:26.445Z,7.40
2018-12-07T21:16:10.905Z,7.50
2018-12-07T21:18:46.015Z,7.50
2018-12-07T21:21:16.567Z,7.50
2018-12-07T21:23:51.826Z,7.50
2018-12-07T21:26:27.268Z,7.50
2018-12-07T21:29:02.641Z,7.50
2018-12-07T21:31:38.255Z,7.50
2018-12-07T21:35:18.994Z,7.60
2018-12-07T21:37:54.224Z,7.50
2018-12-07T21:40:31.362Z,7.50
2018-12-07T21:43:06.652Z,7.50
2018-12-07T21:45:42.133Z,7.40
2018-12-07T21:48:25.832Z,7.30
2018-12-07T21:51:09.653Z,7.30
2018-12-07T21:53:44.682Z,7.20
2018-12-07T21:56:20.340Z,7.20
2018-12-07T21:58:55.877Z,7.10
2018-12-07T22:01:30.910Z,7.10
2018-12-07T22:04:05.937Z,7.10
2018-12-07T22:06:41.596Z,7.10
2018-12-07T22:09:16.849Z,7.10
2018-12-07T22:11:52.284Z,7.00
2018-12-07T22:14:27.238Z,7.00
2018-12-07T22:17:02.598Z,7.00
2018-12-07T22:19:37.942Z,7.00
2018-12-07T22:22:13.254Z,7.00
2018-12-07T22:24:48.093Z,7.10
2018-12-07T22:27:23.638Z,7.10
2018-12-07T22:29:59.483Z,7.20
2018-12-07T22:32:34.763Z,7.20
2018-12-07T22:35:10.007Z,7.20
2018-12-07T22:37:45.948Z,7.30
2018-12-07T22:40:21.282Z,7.30
2018-12-07T22:42:56.596Z,7.30
2018-12-07T22:45:31.812Z,7.30
2018-12-07T22:48:07.139Z,7.40
2018-12-07T22:50:42.384Z,7.40
2018-12-07T22:53:17.244Z,7.40
2018-12-07T22:55:52.269Z,7.40
2018-12-07T22:58:27.087Z,7.30
2018-12-07T23:01:02.909Z,7.30
2018-12-07T23:03:37.864Z,7.20
2018-12-07T23:06:13.466Z,7.20
2018-12-07T23:08:43.197Z,7.20
2018-12-07T23:11:18.160Z,7.20
2018-12-07T23:13:53.016Z,7.20
2018-12-07T23:16:29.886Z,7.20
2018-12-07T23:19:04.896Z,7.20
2018-12-07T23:21:39.813Z,7.20
2018-12-07T23:24:14.708Z,7.10
2018-12-07T23:26:49.904Z,7.10
2018-12-07T23:29:24.901Z,7.10
2018-12-07T23:32:00.084Z,7.10
2018-12-07T23:34:34.946Z,7.10
2018-12-07T23:37:09.724Z,7.10
2018-12-07T23:39:44.599Z,7.10
2018-12-07T23:42:19.631Z,7.00
2018-12-07T23:44:54.606Z,7.00
2018-12-07T23:47:29.267Z,7.00
2018-12-07T23:50:05.492Z,7.00
2018-12-07T23:52:40.145Z,7.00
2018-12-07T23:55:15.814Z,7.00
2018-12-07T23:57:51.364Z,7.00
